Reno, NV (89501)

4:07 PM PST on November 28, 2014 (GMT -0800)
UNR Campus, LMR Roof | Change Station
CLOSE
Current Station
Personal Weather Station
Location: Reno, NV
Elevation: 4570 ft
Nearby Weather Stations
Active Advisory: Wind Advisory, Special Statement Active Notice: Record Report

Elev 4570 ft 39.54 °N, 119.81 °W | Updated 1 minute ago

Partly Cloudy
Partly Cloudy
59.5 °F
Feels Like 59.5 °F
N
8.4
Wind Variable Wind from SW
Gusts 20.2 mph

Today
High -- | Low -- °F
--% Chance of Precip.
Yesterday
High -- | Low -- °F
Precip. -- in
6:57 AM 4:36 PM
Waxing Crescent, 45% visible
Pressure 29.77 in
Visibility 10.0 miles
Clouds Few 9000 ft
Few 12000 ft
Few 15000 ft
Dew Point 0 °F
Humidity 8%
Rainfall 0.00 in
Snow Depth Not available.
UV 0 out of 12
Pollen 2.40 out of 12
Air Quality Not available.
Flu Activity Not available.
METAR KRNO 282355Z 25019G26KT 10SM FEW090 FEW120 FEW150 17/M22 A2984 RMK AO2 PK WND 24035/2319 SLP079 ACSL DSNT N-NE SE T01671217 10194 20167 56014

More Conditions Fewer Conditions

Pressure 29.77 in
Visibility 10.0 miles
Clouds Few 9000 ft
Few 12000 ft
Few 15000 ft
Dew Point 0 °F
Humidity 8%
Rainfall 0.00 in
Snow Depth Not available.
UV 0 out of 12
Pollen 2.40 out of 12
Air Quality Not available.
Flu Activity Not available.
METAR KRNO 282355Z 25019G26KT 10SM FEW090 FEW120 FEW150 17/M22 A2984 RMK AO2 PK WND 24035/2319 SLP079 ACSL DSNT N-NE SE T01671217 10194 20167 56014

More Conditions Fewer Conditions

10-Day Weather Forecast

Almanac

Astronomy

Nov. 28, 2014 Rise Set
Actual Time
Civil Twilight
Nautical Twilight
Astronomical Twilight
Moon
Length of Visible Light
Length of Day
Tomorrow will be .
, % of the Moon is Illuminated

Today's Extremes

State Highs State Lows

Community

WunderPhotos

Upload Photos

1,774,342 photos uploaded!

WunderBlogs® & News

Nearby

Air Quality

  Air Quality AQ Index Pollutant
Not available.

Snow Depth

Station Depth Elevation

Earthquake Activity

City Distance Mag. Time & Date
Minimum magnitude displayed is 2.5.

Coastal Water Temperatures

Place Temperature

Nearby Weather Stations